Tiempo atmosférico en la estación meteorológica de Cáceres, Cáceres (405 m.)



Fecha
DESCASC
Temp. máxima en grados centígrados (hora)
DESCASC
Temp. mínima en grados centígrados (hora)
DESCASC
Temp. media en grados centígrados
DESCASC
Racha de viento máxima en m/sg (hora)
DESCASC
Velocidad máxima media en intervalos de 10 minutos(hora)
DESCASC
Precipitaciones diarias en mm
DESCASC
Precipitaciones de 00:00 a 06:00 en mm
DESCASC
Precipitaciones de 06:00 a 12:00 en mm
DESCASC
Precipitaciones de 12:00 a 18:00 en mm
DESCASC
Precipitaciones de 18:00 a 24:00 en mm
DESCASC
25-01-2020 12.6 (15:40) 6.6 (23:30) 9.6 8.61 (04:30) 5 (04:20) 7.6 6.8 0.4 0.4 0
24-01-2020 12.1 (13:40) 7.7 (06:00) 9.9 7.78 (12:30) 5 (12:30) 5.4 0 0 0 5.4
23-01-2020 9.8 (17:20) 6.3 (00:50) 8.1 9.72 (11:10) 6.94 (21:00) 6 3.2 2 0.8 0
22-01-2020 9.9 (17:00) 5.5 (00:00) 7.7 5.56 (16:20) 3.61 (15:50) 1 0 0.2 0.8 0
21-01-2020 10.2 (13:50) 3.9 (00:00) 7 13.06 (04:30) 6.94 (21:30) 0 0 0 0 0
20-01-2020 8 (16:00) 2 (00:00) 5 15.28 (16:40) 7.22 (15:10) 1 0 0 1 0
19-01-2020 12 (14:30) 3.9 (00:00) 8 15 (12:10) 8.33 (14:40) 0 0 0 0 0
18-01-2020 15.2 (17:20) 8.8 (00:00) 12 13.06 (20:20) 7.22 (20:20) 9.4 1.2 7.4 0.6 0.2
17-01-2020 14.1 (14:50) 8.8 (00:00) 11.5 9.72 (00:40) 7.22 (00:50) 0 0 0 0 0
16-01-2020 15.2 (16:10) 10 (00:00) 12.6 15 (20:30) 8.61 (20:40) 0 0 0 0 0
15-01-2020 14.1 (15:40) 8.4 (00:00) 11.3 13.06 (05:50) 8.33 (06:20) 0.2 0 0.2 0 0
14-01-2020 11.9 (14:30) 2.2 (00:00) 7 12.78 (20:20) 8.89 (20:20) 0.6 0 0 0 0.6
13-01-2020 12.3 (16:20) -0.2 (00:00) 6.1 6.67 (19:50) 3.61 (19:50) 0 0 0 0 0
12-01-2020 13.1 (17:00) -1 (-00:0) 6.1 3.61 (15:30) 2.5 (20:10) 0 0 0 0 0
11-01-2020 13.1 (16:40) 1.3 (00:00) 7.2 3.89 (11:00) 2.5 (11:00) 0 0 0 0 0
10-01-2020 12.3 (15:20) 2.8 (00:00) 7.6 7.78 (05:50) 4.72 (06:30) 0 0 0 0 0
09-01-2020 14.1 (16:40) 0 (00:00) 7.1 8.61 (21:40) 6.11 (22:10) 0 0 0 0 0
08-01-2020 11 (16:40) 0.2 (00:00) 5.6 3.06 (14:50) 2.22 (22:00) 0 0 0 0 0
07-01-2020 12.7 (17:10) 0.8 (00:00) 6.7 3.06 (01:30) 2.22 (20:30) 0 0 0 0 0
06-01-2020 13.1 (15:40) 0.1 (00:00) 6.6 4.44 (16:20) 2.78 (16:20) 0 0 0 0 0
05-01-2020 12.4 (17:20) 0.9 (00:00) 6.6 2.78 (03:00) 1.94 (19:50) 0 0 0 0 0
04-01-2020 11.3 (15:10) 2.1 (00:00) 6.7 8.33 (15:50) 4.72 (15:00) 0 0 0 0 0
03-01-2020 12.5 (16:40) 3.1 (00:00) 7.8 6.39 (15:50) 4.17 (16:10) 0 0 0 0 0
02-01-2020 10 (15:50) -0.3 (00:00) 4.8 2.5 (01:30) 1.67 (13:50) 0 0 0 0 0
01-01-2020 12.1 (16:50) 0 (00:00) 6.1 2.78 (18:50) 2.22 (18:50) 0 0 0 0 0
31-12-2019 13 (16:40) 1.5 (00:00) 7.3 2.5 (01:20) 1.94 (03:50) 0 0 0 0 0
30-12-2019 13.7 (16:50) 1.3 (00:00) 7.5 2.5 (18:30) 2.22 (18:30) 0 0 0 0 0
29-12-2019 16.7 (16:30) 3.5 (00:00) 10.1 2.78 (13:20) 1.94 (19:30) 0 0 0 0 0
28-12-2019 16.2 (16:20) 5.4 (00:00) 10.8 3.33 (10:40) 2.5 (04:00) 0 0 0 0 0

Gráficas

Temp. máximas Temp. mínimas Temp. medias Precipitaciones Rachas de viento máximas Velocidades máximas media en intervalos de 10 minutos

Datos horarios

Fecha y hora oficial Temperatura (ºC) Velocidad del viento (km/h) Dirección del viento Racha (km/h) Dirección de racha Precipitación (mm) Presión (hPa) Tendencia (hPa) Humedad (%)
2020-01-26 23:00:00 9.4 20 Sudoeste 26 Sudoeste 0 979.5 0.4 88
2020-01-26 22:00:00 9.5 19 Sudoeste 28 Sudoeste 0 979.4 0.7 85
2020-01-26 21:00:00 9.7 19 Sudoeste 25 Sudoeste 0 979.4 1 83
2020-01-26 20:00:00 9.9 17 Sudoeste 26 Sudoeste 0 979.1 1.2 84
2020-01-26 19:00:00 10.3 12 Sudoeste 23 Sudoeste 0 978.7 1 83
2020-01-26 18:00:00 11.2 10 Sudoeste 18 Sudoeste 0 978.4 0.3 74
2020-01-26 17:00:00 12 10 Oeste 20 Sudoeste 0 977.9 -0.5 66
2020-01-26 16:00:00 12.8 11 Sudoeste 19 Oeste 0 977.7 -1.3 65
2020-01-26 15:00:00 11.8 12 Oeste 21 Noroeste 0 978.1 -1 67
2020-01-26 14:00:00 11.8 10 Oeste 19 Sudoeste 0 978.4 -0.1 59
2020-01-26 13:00:00 10.5 8 Noroeste 13 Oeste 0 979 1.3 74
2020-01-26 12:00:00 9.2 4 Norte 12 Oeste 0 979.1 2 88
2020-01-26 11:00:00 8.9 3 Este 8 Norte 0 978.5 2.3 87
2020-01-26 10:00:00 6.8 7 Oeste 20 Oeste 0 977.7 2.1 92
2020-01-26 09:00:00 4.2 10 Sudoeste 19 Oeste 0 977.1 2 100
2020-01-26 08:00:00 4.2 3 Sur 4 Sudoeste 0 976.2 1.5 99
2020-01-26 07:00:00 5.5 0 Calma 13 Oeste 0 975.6 1.2 94
2020-01-26 06:00:00 6.7 9 Oeste 21 Oeste 0 975.1 1.1 93
2020-01-26 05:00:00 7.4 10 Oeste 17 Oeste 0 974.7 0.8 93
2020-01-26 04:00:00 7.4 9 Oeste 20 Oeste 0 974.4 0.6 93
2020-01-26 03:00:00 7.3 11 Oeste 18 Oeste 0 974 0.5 97
2020-01-26 02:00:00 7.3 4 Oeste 12 Oeste 0 973.9 0.9 97
2020-01-26 01:00:00 7.7 8 Oeste 16 Oeste 0 973.8 1.2 97
2020-01-26 00:00:00 7.5 13 Sudoeste 17 Oeste 0 973.5 1.4 99
2020-01-25 23:00:00 7 8 Sudoeste 10 Sudoeste 0 973 1.5 97
2020-01-25 22:00:00 8.1 5 Sudoeste 7 Sudoeste 0 972.6 1.7 97
2020-01-25 21:00:00 9 3 Sudoeste 5 Sudoeste 0 972.1 2 97
2020-01-25 20:00:00 9.6 0 Calma 5 Norte 0 971.5 1.9 94
2020-01-25 19:00:00 10 0 Calma 10 Noroeste 0 970.9 1.6 91
2020-01-25 18:00:00 10.4 5 Oeste 16 Noroeste 0 970.1 0.8 88
2020-01-25 17:00:00 10.9 8 Oeste 18 Noroeste 0.4 969.6 -0.1 90
2020-01-25 16:00:00 11.9 5 Oeste 17 Oeste 0 969.3 -0.9 77
2020-01-25 15:00:00 11.9 8 Sur 15 Sudeste 0 969.3 -1.3 77
2020-01-25 14:00:00 11.4 9 Sudeste 14 Sur 0 969.7 -0.7 81
2020-01-25 13:00:00 12.1 9 Sur 22 Sudeste 0 970.2 0.3 79
2020-01-25 12:00:00 11.1 12 Sudeste 20 Sudeste 0 970.6 1.1 85
2020-01-25 11:00:00 10.5 10 Sudeste 20 Sur 0 970.4 1.5 89
2020-01-25 10:00:00 8.7 15 Sudeste 21 Sur 0 969.9 1.4 94
2020-01-25 09:00:00 8.1 13 Sur 23 Sur 0 969.5 0.9 96
2020-01-25 08:00:00 8 15 Sudeste 27 Sur 0 968.9 0.3 96
2020-01-25 07:00:00 8.5 13 Sur 23 Sur 0.4 968.5 0 96
2020-01-25 06:00:00 8.6 6 Sur 21 Sur 1.2 968.6 -0.2 98
2020-01-25 05:00:00 8.5 14 Sur 31 Sur 0.8 968.6 -0.8 97
2020-01-25 04:00:00 8.5 14 Sur 24 Sur 0.4 968.5 -1.6 97
2020-01-25 03:00:00 8.1 8 Este 24 Sudeste 1.2 968.8 -1.8 97
2020-01-25 02:00:00 8 8 Este 15 Este 1.6 969.4 -1.6 100
2020-01-25 01:00:00 7.8 8 Este 23 Este 1.6 970.1 -1.1 98
2020-01-25 00:00:00 8.4 10 Este 15 Este 2.8 970.6 -0.6 100
2020-01-24 23:00:00 8.3 6 Sudeste 12 Este 1.4 971 0 99
2020-01-24 22:00:00 8.6 10 Sudeste 16 Sudeste 1.2 971.2 0.3 97
2020-01-24 21:00:00 9 8 Sudeste 14 Este 0 971.2 0.2 93
2020-01-24 20:00:00 8.6 6 Sudeste 10 Sudeste 0 971 -0.5 96
2020-01-24 19:00:00 9.1 6 Sudeste 12 Nordeste 0 970.9 -0.7 94
2020-01-24 18:00:00 10.2 10 Este 18 Este 0 971 -1.1 90
2020-01-24 17:00:00 10.9 13 Este 22 Este 0 971.5 -1.1 85
2020-01-24 16:00:00 11.7 15 Sudeste 24 Sudeste 0 971.6 -1.8 79
2020-01-24 15:00:00 11.4 17 Sudeste 25 Sudeste 0 972.1 -1.8 80
2020-01-24 14:00:00 11.5 18 Sudeste 27 Sudeste 0 972.6 -1 80
2020-01-24 13:00:00 11.6 16 Sudeste 28 Sudeste 0 973.4 0.2 81
2020-01-24 12:00:00 10.6 16 Sudeste 25 Sudeste 0 973.9 1 86
2020-01-24 11:00:00 9.5 12 Este 20 Sudeste 0 973.6 1 96
2020-01-24 10:00:00 8.2 9 Este 15 Este 0 973.2 0.9 99
2020-01-24 09:00:00 7.8 13 Este 17 Este 0 972.9 1 99
2020-01-24 08:00:00 7.8 8 Este 15 Sudeste 0 972.6 0.7 98
2020-01-24 07:00:00 7.8 8 Sudeste 18 Este 0 972.3 0.3 97
2020-01-24 06:00:00 7.7 12 Este 23 Sudeste 0 971.9 -0.1 97
2020-01-24 05:00:00 7.9 15 Sur 23 Sudeste 0 971.9 -0.1 97
2020-01-24 04:00:00 8.3 17 Sudeste 25 Sudeste 0 972 0 96
2020-01-24 03:00:00 8.3 15 Sudeste 22 Sudeste 0 972 0 95
2020-01-24 02:00:00 8.4 13 Sudeste 22 Sudeste 0 972 0.3 95
2020-01-24 01:00:00 8.5 14 Sudeste 23 Sudeste 0 972 0.7 94
2020-01-24 00:00:00 8.5 13 Sudeste 26 Sur 0 972 1.1 96
2020-01-23 23:00:00 8.6 17 Sudeste 31 Sudeste 0 971.7 1.3 95
2020-01-23 22:00:00 8.6 18 Sudeste 33 Sudeste 0 971.3 1.1 93
2020-01-23 21:00:00 8.8 25 Sudeste 32 Sudeste 0 970.9 1.2 90
2020-01-23 20:00:00 9 18 Sudeste 26 Sudeste 0 970.4 1.2 92
2020-01-23 19:00:00 9 13 Sudeste 26 Este 0 970.2 0.9 95
2020-01-23 18:00:00 9.2 16 Sudeste 28 Sudeste 0 969.7 0.2 94
2020-01-23 17:00:00 9.5 18 Sudeste 32 Sudeste 0.2 969.2 -0.9 94
2020-01-23 16:00:00 8.6 14 Sudeste 28 Este 0.4 969.3 -1.2 98
2020-01-23 15:00:00 8.7 19 Sudeste 31 Sudeste 0 969.5 -1.3 95
2020-01-23 14:00:00 8.6 19 Sudeste 31 Sudeste 0.2 970.1 -0.4 95
2020-01-23 13:00:00 8.7 19 Sudeste 33 Sudeste 0 970.5 0.5 93
2020-01-23 12:00:00 8.8 19 Sudeste 35 Sudeste 0 970.8 1.2 91
2020-01-23 11:00:00 8.1 22 Sudeste 32 Sudeste 0 970.5 1.3 93
2020-01-23 10:00:00 7.4 16 Sudeste 26 Sudeste 0 970 1.1 96
2020-01-23 09:00:00 7.2 18 Sudeste 28 Sudeste 0.6 969.6 0.6 98
2020-01-23 08:00:00 7.1 19 Sudeste 28 Este 0.6 969.2 -0.1 98
2020-01-23 07:00:00 7.1 16 Sudeste 26 Sudeste 0.8 968.9 -0.7 98
2020-01-23 06:00:00 7.1 16 Sudeste 25 Sudeste 1.4 969 -0.5 98
2020-01-23 05:00:00 7.3 14 Sudeste 26 Sudeste 1.4 969.3 -0.4 97
2020-01-23 04:00:00 7.5 10 Sudeste 25 Sudeste 0.4 969.6 -0.3 95
2020-01-23 03:00:00 8.2 17 Sudeste 22 Sudeste 0 969.5 -0.4 86
2020-01-23 02:00:00 6.8 6 Sudeste 17 Sudeste 0 969.7 -0.2 94
2020-01-23 01:00:00 6.3 0 Calma 6 Sudoeste 0 969.9 0.2 92
2020-01-23 00:00:00 7.1 0 Calma 9 Nordeste 0 969.9 0.2 90
2020-01-22 23:00:00 7.6 6 Nordeste 10 Este 0 969.9 0.5 88
2020-01-22 22:00:00 7.2 7 Sudeste 10 Sudeste 0 969.7 0.4 90
2020-01-22 21:00:00 7.6 6 Sudeste 9 Sudeste 0 969.7 0.8 89
2020-01-22 20:00:00 8.3 7 Sudeste 10 Sudeste 0 969.4 0.4 85
2020-01-22 19:00:00 8.7 7 Sudeste 12 Sudeste 0 969.3 0 84
2020-01-22 18:00:00 9.3 5 Sudeste 13 Este 0 968.9 -0.9 84
2020-01-22 17:00:00 9.9 9 Este 20 Este 0 969 -1.4 81
2020-01-22 16:00:00 9.4 11 Este 19 Este 0 969.3 -1.7 83
2020-01-22 15:00:00 8.8 9 Nordeste 19 Nordeste 0 969.8 -1.5 84
2020-01-22 14:00:00 8.2 6 Nordeste 14 Este 0 970.4 -0.4 89
2020-01-22 13:00:00 7.6 6 Este 11 Sudeste 0.8 971 0.6 94
2020-01-22 12:00:00 7.4 9 Este 13 Este 0 971.3 1.4 91
2020-01-22 11:00:00 7.2 10 Este 16 Este 0.2 970.8 1.3 88
2020-01-22 10:00:00 7.2 12 Este 18 Este 0 970.4 1.1 84
2020-01-22 09:00:00 6.8 11 Este 19 Este 0 969.9 0.6 87
2020-01-22 08:00:00 7 11 Este 17 Este 0 969.5 0 83
2020-01-22 07:00:00 6.4 4 Nordeste 9 Este 0 969.3 -0.6 85
2020-01-22 06:00:00 6.1 0 Calma 11 Este 0 969.3 -0.7 86
2020-01-22 05:00:00 6.5 8 Este 14 Este 0 969.5 -0.8 83
2020-01-22 04:00:00 6.2 9 Sudeste 13 Este 0 969.9 -0.3 84
2020-01-22 03:00:00 5.6 5 Sudeste 12 Sudeste 0 970 0 85
2020-01-22 02:00:00 6 9 Sudeste 13 Sudeste 0 970.3 0.2 86
2020-01-22 01:00:00 6.1 7 Este 18 Este 0 970.2 1.3 85
2020-01-22 00:00:00 6.7 9 Este 24 Este 0 970 0.6 85
2020-01-21 23:00:00 7 18 Este 36 Este 0 970.1 0.6 82
2020-01-21 22:00:00 7.6 20 Este 42 Este 0 968.9 0 74
2020-01-21 21:00:00 7.7 19 Este 39 Nordeste 0 969.4 0.7 75
2020-01-21 20:00:00 7.6 12 Nordeste 23 Nordeste 0 969.5 0.6 75
2020-01-21 19:00:00 7.5 7 Norte 22 Norte 0 968.9 0 73
2020-01-21 18:00:00 8 12 Noroeste 21 Norte 0 968.7 -0.8 70
2020-01-21 17:00:00 9.1 10 Nordeste 22 Nordeste 0 968.9 -1.6 69
2020-01-21 16:00:00 9.6 14 Nordeste 32 Nordeste 0 968.9 -2.4 64
2020-01-21 15:00:00 9.3 10 Norte 25 Nordeste 0 969.5 -2.4 66
2020-01-21 14:00:00 9.2 13 Norte 30 Nordeste 0 970.5 -1.8 62
2020-01-21 13:00:00 9.1 15 Norte 28 Norte 0 971.3 -0.9 62
2020-01-21 12:00:00 7.3 10 Norte 18 Norte 0 971.9 -0.3 68
2020-01-21 11:00:00 6.1 8 Norte 21 Norte 0 972.3 -0.3 70
2020-01-21 10:00:00 5.9 14 Nordeste 33 Nordeste 0 972.2 -0.3 73
2020-01-21 09:00:00 4.5 7 Nordeste 13 Nordeste 0 972.2 -0.4 76
2020-01-21 08:00:00 5.9 11 Este 35 Nordeste 0 972.6 0 69
2020-01-21 07:00:00 6.1 12 Este 32 Nordeste 0 972.5 -0.8 69
2020-01-21 06:00:00 6.5 9 Nordeste 36 Nordeste 0 972.6 -1.3 66
2020-01-21 05:00:00 7 22 Nordeste 47 Este 0 972.6 -1.5 63
2020-01-21 04:00:00 6.7 19 Nordeste 38 Nordeste 0 973.3 -1.6 65
2020-01-21 03:00:00 6.7 19 Este 36 Este 0 973.9 -1 62
2020-01-21 02:00:00 6.6 17 Este 33 Nordeste 0 974.1 -0.8 60
2020-01-21 01:00:00 6.5 16 Este 39 Este 0 974.9 0.2 62
2020-01-21 00:00:00 6.6 19 Este 37 Nordeste 0 974.9 0.4 62
2020-01-20 23:00:00 6.4 16 Este 39 Nordeste 0 974.9 0.7 64
2020-01-20 22:00:00 6.7 16 Nordeste 31 Nordeste 0 974.7 0.6 64
2020-01-20 21:00:00 6.6 15 Nordeste 37 Nordeste 0 974.5 0.6 62
2020-01-20 20:00:00 7.2 19 Nordeste 40 Este 0 974.2 -0.3 60
2020-01-20 19:00:00 7 19 Nordeste 38 Nordeste 0 974.1 -0.3 61
2020-01-20 18:00:00 5.6 22 Nordeste 50 Nordeste 0.8 973.9 -0.9 74
2020-01-20 17:00:00 5.5 22 Este 55 Este 0.2 974.5 -0.9 75
2020-01-20 16:00:00 7.8 21 Nordeste 42 Nordeste 0 974.4 -1.4 53
2020-01-20 15:00:00 7.9 18 Nordeste 37 Nordeste 0 974.8 -1.3 52
2020-01-20 14:00:00 6.1 14 Nordeste 32 Nordeste 0 975.4 -1.1 47
2020-01-20 13:00:00 7 17 Nordeste 33 Norte 0 975.8 -0.2 42
2020-01-20 12:00:00 6 19 Norte 29 Nordeste 0 976.1 0.4 54
2020-01-20 11:00:00 4.3 12 Norte 23 Norte 0 976.5 1 56
2020-01-20 10:00:00 3.4 10 Norte 16 Norte 0 976 0.7 60
2020-01-20 09:00:00 2.1 7 Nordeste 19 Norte 0 975.7 -0.1 66
2020-01-20 08:00:00 2.2 14 Norte 22 Norte 0 975.5 -0.6 61
2020-01-20 07:00:00 2.8 16 Norte 24 Norte 0 975.3 -1.5 61
2020-01-20 06:00:00 3.8 10 Norte 19 Nordeste 0 975.8 -1.5 59
2020-01-20 05:00:00 3.9 10 Norte 17 Norte 0 976.1 -1.7 60
2020-01-20 04:00:00 3.1 4 Norte 11 Nordeste 0 976.8 -1.6 63
2020-01-20 03:00:00 2.8 5 Norte 11 Nordeste 0 977.3 -0.8 60
2020-01-20 02:00:00 2.2 2 Sudoeste 6 Nordeste 0 977.8 0.2 63
2020-01-20 01:00:00 2.4 3 Oeste 11 Nordeste 0 978.4 0.9 66
2020-01-20 00:00:00 3.9 8 Norte 27 Norte 0 978.1 1 54
2020-01-19 23:00:00 5 17 Norte 31 Norte 0 977.6 0.8 47
2020-01-19 22:00:00 5.7 15 Norte 27 Norte 0 977.5 1 46
2020-01-19 21:00:00 5.8 8 Noroeste 18 Norte 0 977.1 1.2 53
2020-01-19 20:00:00 7.2 11 Norte 33 Norte 0 976.8 1.2 53
2020-01-19 19:00:00 8.4 14 Norte 32 Nordeste 0 976.5 0.7 50
2020-01-19 18:00:00 9.8 21 Norte 44 Norte 0 975.9 0.2 47
2020-01-19 17:00:00 11.5 21 Norte 46 Norte 0 975.6 -0.4 41
2020-01-19 16:00:00 11.8 27 Norte 51 Norte 0 975.8 -0.6 44
2020-01-19 15:00:00 11.7 30 Norte 51 Noroeste 0 975.7 -1.2 47
2020-01-19 14:00:00 11.9 26 Norte 51 Norte 0 976 -0.7 49
2020-01-19 13:00:00 11 28 Norte 54 Norte 0 976.4 -0.2 58
2020-01-19 12:00:00 10.6 26 Norte 45 Norte 0 976.9 0.7 63
2020-01-19 11:00:00 9.4 24 Norte 44 Noroeste 0 976.7 1.2 69
2020-01-19 10:00:00 8.4 19 Norte 42 Norte 0 976.6 1.4 72
2020-01-19 09:00:00 6.2 6 Oeste 14 Noroeste 0 976.2 0.6 87
2020-01-19 08:00:00 6.4 8 Noroeste 26 Noroeste 0 975.5 0.1 92
2020-01-19 07:00:00 6.6 14 Noroeste 24 Noroeste 0 975.2 -0.6 93
2020-01-19 06:00:00 7.5 5 Nordeste 27 Oeste 0 975.6 -0.5 90
2020-01-19 05:00:00 8.1 15 Oeste 33 Oeste 0 975.4 -1.2 87
2020-01-19 04:00:00 8.4 16 Oeste 35 Noroeste 0 975.8 -1.3 83
2020-01-19 03:00:00 8.2 18 Oeste 30 Oeste 0 976.1 -1 85
2020-01-19 02:00:00 8.5 16 Oeste 34 Oeste 0 976.6 -0.3 82
2020-01-19 01:00:00 8.9 16 Oeste 32 Oeste 0 977.1 -0.2 84
2020-01-19 00:00:00 9.4 15 Oeste 37 Oeste 0 977.1 -0.2 89
2020-01-18 23:00:00 10.1 18 Oeste 42 Sudoeste 0.2 976.9 0.2 94
2020-01-18 22:00:00 11.2 20 Oeste 40 Oeste 0 977.3 0.6 84
2020-01-18 21:00:00 11.7 20 Oeste 47 Oeste 0 977.3 0.3 82
2020-01-18 20:00:00 13 17 Oeste 35 Oeste 0 976.7 -0.9 87
2020-01-18 19:00:00 13.6 12 Oeste 27 Oeste 0 976.7 -1.2 80
2020-01-18 18:00:00 14.1 13 Oeste 23 Oeste 0 977 -1.7 82
2020-01-18 17:00:00 15 17 Oeste 28 Oeste 0 977.6 -1.9 83
2020-01-18 16:00:00 14.7 13 Oeste 25 Oeste 0 977.9 -2.6 90
2020-01-18 15:00:00 14.1 8 Sudoeste 25 Sudoeste 0 978.7 -2.6 90
2020-01-18 14:00:00 13 15 Sudoeste 23 Sudoeste 0 979.5 -2 96
2020-01-18 13:00:00 11.5 10 Sur 16 Sur 0.6 980.5 -0.7 99
2020-01-18 12:00:00 10.5 9 Sudeste 20 Sudeste 0.6 981.3 -0.1 99
2020-01-18 11:00:00 9.8 14 Sudeste 28 Sudeste 0.6 981.5 -0.5 99
2020-01-18 10:00:00 9.4 17 Sudeste 30 Sudeste 2.2 981.2 -0.6 99
2020-01-18 09:00:00 9.1 18 Sudeste 28 Sudeste 1.8 981.4 -0.8 100
2020-01-18 08:00:00 9.1 13 Este 18 Este 1.8 982 0 99
2020-01-18 07:00:00 10.3 14 Sudeste 23 Sur 0.4 981.8 -0.8 90
2020-01-18 06:00:00 10.2 13 Sudeste 25 Sudeste 0.4 982.2 -1.1 90
2020-01-18 05:00:00 10.2 17 Sudeste 28 Sur 0.6 982 -2 91
2020-01-18 04:00:00 10.3 21 Sur 30 Sur 0.2 982.6 -2.5 89
2020-01-18 03:00:00 10.9 14 Sur 20 Sur 0 983.3 -2.2 84
2020-01-18 02:00:00 10.6 10 Sur 16 Sudoeste 0 984 -1.3 87
2020-01-18 01:00:00 11.2 11 Sur 17 Sur 0 985.1 0 85
2020-01-18 00:00:00 11.1 7 Sudoeste 19 Sudoeste 0 985.5 -0.1 85
2020-01-17 23:00:00 10.9 15 Sudoeste 23 Sudoeste 0 985.3 -0.3 85
2020-01-17 22:00:00 10 10 Sur 15 Sur 0 985.1 -0.1 88
2020-01-17 21:00:00 9.8 9 Sudoeste 12 Sur 0 985.6 1 87
2020-01-17 20:00:00 9.7 11 Sur 16 Sur 0 985.6 0.9 79
2020-01-17 19:00:00 9.3 7 Sudoeste 8 Sudoeste 0 985.2 0.4 81
2020-01-17 18:00:00 11.5 4 Sudoeste 9 Oeste 0 984.6 -0.1 73
2020-01-17 17:00:00 13.6 7 Oeste 14 Oeste 0 984.7 -0.4 61
2020-01-17 16:00:00 13.5 11 Oeste 21 Oeste 0 984.8 -0.9 60
2020-01-17 15:00:00 13.6 10 Oeste 23 Sudoeste 0 984.7 -1.4 65
2020-01-17 14:00:00 12.8 10 Sudoeste 23 Oeste 0 985.1 -0.4 80
2020-01-17 13:00:00 12.6 13 Oeste 27 Sudoeste 0 985.7 0.9 80
2020-01-17 12:00:00 11.4 17 Sudoeste 30 Sudoeste 0 986.1 1.8 91
2020-01-17 11:00:00 10.4 14 Sudoeste 28 Sudoeste 0 985.5 1.6 93
2020-01-17 10:00:00 9.4 16 Sudoeste 34 Sudoeste 0 984.8 2 98
2020-01-17 09:00:00 8.9 23 Sudoeste 31 Sudoeste 0 984.3 2 98
2020-01-17 08:00:00 9 15 Sudoeste 26 Sudoeste 0 983.9 1.8 97
2020-01-17 07:00:00 9.1 18 Sudoeste 28 Sur 0 982.8 0.8 98
2020-01-17 06:00:00 9.5 19 Sudoeste 32 Sudoeste 0 982.3 0.7 97
2020-01-17 05:00:00 9.6 18 Sudoeste 31 Sudoeste 0 982.1 0.7 97
2020-01-17 04:00:00 9.2 19 Sudoeste 32 Sudoeste 0 982 0.7 99
2020-01-17 03:00:00 9.8 16 Sudoeste 35 Sudoeste 0 981.6 0.5 96
2020-01-17 02:00:00 10.2 20 Sudoeste 31 Sudoeste 0 981.4 0.8 93
2020-01-17 01:00:00 10.5 22 Sudoeste 35 Sur 0 981.3 1.3 93
2020-01-17 00:00:00 10.6 11 Sudoeste 30 Oeste 0 981.1 1.6 91
2020-01-16 23:00:00 12.2 14 Sudoeste 36 Oeste 0 980.6 1.5 76
2020-01-16 22:00:00 12.9 21 Sur 53 Sur 0 980 1.2 63
2020-01-16 21:00:00 13.4 29 Sur 54 Sur 0 979.5 1 56
2020-01-16 20:00:00 13.5 24 Sur 46 Sur 0 979.1 0.7 56
2020-01-16 19:00:00 13.7 24 Sur 40 Sur 0 978.8 0.2 51
2020-01-16 18:00:00 14.5 13 Sur 39 Sur 0 978.5 -0.5 44
2020-01-16 17:00:00 15 18 Sur 36 Sur 0 978.4 -1.3 51
2020-01-16 16:00:00 15 13 Sudoeste 39 Sur 0 978.6 -2 54
2020-01-16 15:00:00 15 18 Sur 34 Sur 0 979 -2.2 58
2020-01-16 14:00:00 14.6 17 Sur 31 Sur 0 979.7 -1.4 62
2020-01-16 13:00:00 14.2 9 Sur 23 Sur 0 980.6 0 69
2020-01-16 12:00:00 13 15 Sur 27 Sur 0 981.2 0.8 77
2020-01-16 11:00:00 12.2 8 Sur 24 Sur 0 981.1 1.1 82
2020-01-16 10:00:00 10.6 13 Sur 27 Sur 0 980.6 1 89
2020-01-16 09:00:00 10 18 Sur 27 Sur 0 980.4 0.9 92
2020-01-16 08:00:00 10.2 21 Sur 30 Sur 0 980 0.2 92
2020-01-16 07:00:00 10.6 20 Sur 35 Sur 0 979.6 -0.1 92
2020-01-16 06:00:00 10.5 21 Sur 28 Sur 0 979.5 -0.1 94
2020-01-16 05:00:00 11.3 14 Sudeste 24 Sur 0 979.8 -0.1 92
2020-01-16 04:00:00 11.7 15 Sur 35 Sur 0 979.7 -0.3 90
2020-01-16 03:00:00 11.8 20 Sur 31 Sur 0 979.6 -0.6 90
2020-01-16 02:00:00 11.7 18 Sur 30 Sur 0 979.9 0 91
2020-01-16 01:00:00 11.8 21 Sur 29 Sur 0 980 0.3 90
2020-01-16 00:00:00 11.6 18 Sur 33 Sur 0 980.2 0.7 91
2020-01-15 23:00:00 11.4 24 Sur 37 Sur 0 979.9 0.7 91
2020-01-15 22:00:00 11.7 24 Sur 36 Sur 0 979.7 1 90
2020-01-15 21:00:00 11.7 23 Sur 34 Sur 0 979.5 1.3 89
2020-01-15 20:00:00 12.6 15 Sur 29 Sur 0 979.2 1.4 86
2020-01-15 19:00:00 12.3 14 Sudeste 27 Sudeste 0 978.7 1.2 85
2020-01-15 18:00:00 12.9 14 Sudeste 24 Sudeste 0 978.2 0.9 84
2020-01-15 17:00:00 13.8 15 Sudeste 25 Sur 0 977.8 0.1 81
2020-01-15 16:00:00 13.9 17 Sur 31 Sur 0 977.5 -0.3 81
2020-01-15 15:00:00 13.9 22 Sur 40 Sur 0 977.3 -0.6 78
2020-01-15 14:00:00 12.6 19 Sur 38 Sur 0 977.7 0.3 80
2020-01-15 13:00:00 11.8 28 Sur 42 Sur 0 977.8 1.4 82
2020-01-15 12:00:00 10.3 26 Sur 46 Sur 0.2 977.9 2.1 87
2020-01-15 11:00:00 10.1 24 Sur 45 Sur 0 977.4 2 82
2020-01-15 10:00:00 9.6 25 Sur 46 Sur 0 976.4 1.6 82
2020-01-15 09:00:00 9.3 30 Sur 43 Sur 0 975.8 1.2 81
2020-01-15 08:00:00 9.2 23 Sur 42 Sur 0 975.4 0.6 80
2020-01-15 07:00:00 8.9 27 Sur 45 Sur 0 974.8 -0.4 81
2020-01-15 06:00:00 8.8 28 Sur 47 Sur 0 974.6 -0.8 81
2020-01-15 05:00:00 8.8 28 Sur 46 Sur 0 974.8 -0.8 81
2020-01-15 04:00:00 8.9 24 Sur 42 Sur 0 975.2 -1 81
2020-01-15 03:00:00 8.5 23 Sur 34 Sur 0 975.4 -0.8 83
2020-01-15 02:00:00 8.6 25 Sur 39 Sur 0 975.6 -0.3 84
2020-01-15 01:00:00 8.4 17 Sur 28 Sur 0 976.2 0.3 86
2020-01-15 00:00:00 9.1 15 Sur 44 Sudoeste 0 976.2 0.6 82
2020-01-14 23:00:00 9.5 19 Sur 31 Sur 0 975.9 0.6 81
2020-01-14 22:00:00 9.7 17 Sudeste 35 Sur 0 975.9 0.4 82
2020-01-14 21:00:00 9.9 24 Sur 46 Sur 0 975.6 0.1 82
2020-01-14 20:00:00 9.5 30 Sur 40 Sudeste 0 975.3 -0.2 84
2020-01-14 19:00:00 8.9 19 Sudeste 27 Sur 0.6 975.5 0 91
2020-01-14 18:00:00 9.8 19 Sur 33 Sur 0 975.5 0.1 84
2020-01-14 17:00:00 10.6 15 Sur 25 Sur 0 975.5 -0.6 72
2020-01-14 16:00:00 10.8 6 Sudeste 27 Sur 0 975.5 -1.5 68
2020-01-14 15:00:00 11.4 20 Sur 32 Sur 0 975.4 -2.2 65
2020-01-14 14:00:00 11.7 19 Sur 27 Sur 0 976.1 -1.6 63
2020-01-14 13:00:00 11.4 16 Sur 24 Sur 0 977 0.3 66
2020-01-14 12:00:00 9.2 12 Sur 18 Sur 0 977.6 0.8 75
2020-01-14 11:00:00 6.8 9 Noroeste 18 Sudeste 0 977.7 0.9 88
2020-01-14 10:00:00 4.7 2 Noroeste 14 Sudeste 0 976.7 0.2 91
2020-01-14 09:00:00 5.7 10 Sudeste 19 Sur 0 976.8 0.5 86
2020-01-14 08:00:00 3.6 6 Sur 14 Sur 0 976.8 0.3 94
2020-01-14 07:00:00 3.1 6 Noroeste 10 Noroeste 0 976.5 -0.6 95
2020-01-14 06:00:00 3.9 4 Norte 10 Este 0 976.3 -0.8 91
2020-01-14 05:00:00 3.7 9 Sudeste 11 Sudeste 0 976.5 -1.1 92
2020-01-14 04:00:00 2.6 2 Oeste 10 Sur 0 977.1 -0.9 90
2020-01-14 03:00:00 4.6 11 Sur 14 Sur 0 977.1 -1.4 84
2020-01-14 02:00:00 2.8 0 Calma 12 Sur 0 977.6 -0.9 89
2020-01-14 01:00:00 3.8 8 Sudoeste 10 Sudoeste 0 978 -0.1 87
2020-01-14 00:00:00 3.5 4 Sur 13 Sudoeste 0 978.5 0 87
2020-01-13 23:00:00 4.1 9 Sudoeste 13 Sur 0 978.5 0.3 84
2020-01-13 22:00:00 5.5 8 Sur 14 Sudoeste 0 978.1 0.4 79
2020-01-13 21:00:00 6.5 8 Sudoeste 16 Sudoeste 0 978.5 0.8 72
2020-01-13 20:00:00 7.9 12 Sudoeste 24 Sur 0 978.2 0.3 65
2020-01-13 19:00:00 8 6 Sur 14 Sudoeste 0 977.7 -0.6 66
2020-01-13 18:00:00 9.6 11 Sur 18 Sur 0 977.7 -0.8 61
2020-01-13 17:00:00 11.5 11 Sur 20 Sudoeste 0 977.9 -1.6 53
2020-01-13 16:00:00 12.1 9 Sudoeste 19 Sudoeste 0 978.3 -2.5 51
2020-01-13 15:00:00 11.9 9 Sudoeste 22 Sudoeste 0 978.5 -2.7 56
2020-01-13 14:00:00 10.2 3 Norte 9 Norte 0 979.5 -1.6 69
2020-01-13 13:00:00 6.7 4 Norte 8 Norte 0 980.8 0.1 81
2020-01-13 12:00:00 5.1 3 Norte 6 Noroeste 0 981.2 0.9 87
2020-01-13 11:00:00 3.3 3 Este 5 Norte 0 981.1 0.8 92
2020-01-13 10:00:00 0.8 0 Calma 8 Noroeste 0 980.7 0.3 98
2020-01-13 09:00:00 0 6 Noroeste 8 Noroeste 0 980.3 -0.1 97
2020-01-13 08:00:00 0.8 0 Calma 5 Sur 0 980.3 -0.5 98
2020-01-13 07:00:00 0.1 3 Sudeste 5 Sudeste 0 980.4 -0.8 98
2020-01-13 06:00:00 0.4 3 Oeste 5 Sudeste 0 980.4 -1.2 96
2020-01-13 05:00:00 0.2 0 Calma 3 Oeste 0 980.8 -1 94
2020-01-13 04:00:00 0.5 0 Calma 8 Oeste 0 981.2 -1.2 94
2020-01-13 03:00:00 1.9 0 Calma 5 Sudoeste 0 981.6 -1.1 90
2020-01-13 02:00:00 2.3 2 Sudeste 6 Sudoeste 0 981.8 -1 89
2020-01-13 01:00:00 3.8 0 Calma 7 Sur 0 982.4 -0.6 82
2020-01-13 00:00:00 3.7 6 Sudoeste 9 Sudoeste 0 982.7 -0.4 83
2020-01-12 23:00:00 4.1 6 Sudoeste 9 Sudoeste 0 982.8 -0.5 82
2020-01-12 22:00:00 4.3 8 Sudoeste 10 Sudoeste 0 983 -0.1 80
2020-01-12 21:00:00 4.6 7 Sudoeste 11 Sudoeste 0 983.1 0.4 81
2020-01-12 20:00:00 5.7 8 Sudoeste 11 Sudoeste 0 983.3 0.7 72
2020-01-12 19:00:00 6.3 6 Sudoeste 10 Sudoeste 0 983.1 0.3 72
2020-01-12 18:00:00 8.1 5 Sudoeste 7 Sudoeste 0 982.7 -0.5 67
2020-01-12 17:00:00 13.1 3 Oeste 9 Noroeste 0 982.6 -1.6 50
2020-01-12 16:00:00 12 5 Norte 13 Norte 0 982.8 -2.5 57
2020-01-12 15:00:00 11.5 6 Norte 10 Norte 0 983.2 -2.6 59
2020-01-12 14:00:00 9.6 4 Norte 9 Noroeste 0 984.2 -1.4 66
2020-01-12 13:00:00 7.6 4 Norte 10 Norte 0 985.3 0.2 74
2020-01-12 12:00:00 7.4 4 Norte 8 Norte 0 985.8 1 77
2020-01-12 11:00:00 4.8 3 Este 5 Este 0 985.6 1.1 84
2020-01-12 10:00:00 1.9 0 Calma 3 Sudoeste 0 985.1 0.8 95
2020-01-12 09:00:00 -0.8 0 Calma 8 Oeste 0 984.8 0.7 97
2020-01-12 08:00:00 -0.5 2 Oeste 8 Oeste 0 984.5 0 93
2020-01-12 07:00:00 0.8 3 Oeste 6 Noroeste 0 984.3 -0.7 89
2020-01-12 06:00:00 1.4 0 Calma 4 Sudeste 0 984.1 -0.6 91
2020-01-12 05:00:00 1.1 0 Calma 6 Oeste 0 984.5 -0.2 93
2020-01-12 04:00:00 0.7 4 Oeste 7 Oeste 0 985 0.2 90
2020-01-12 03:00:00 1.7 0 Calma 6 Sudoeste 0 984.7 -0.2 90
2020-01-12 02:00:00 2.3 5 Sudoeste 6 Sudoeste 0 984.7 -0.2 86
2020-01-12 01:00:00 3.3 4 Sur 9 Sudoeste 0 984.8 0 82
2020-01-12 00:00:00 3.5 5 Sudoeste 8 Sudoeste 0 984.9 0.1 82
2020-01-11 23:00:00 4.1 7 Sur 8 Sur 0 984.9 0.3 81
2020-01-11 22:00:00 4.5 6 Sur 9 Sudoeste 0 984.8 0.6 78
2020-01-11 21:00:00 4.3 5 Sur 10 Sudoeste 0 984.8 1 80
2020-01-11 20:00:00 4.5 7 Sudoeste 9 Sudoeste 0 984.6 1 80
2020-01-11 19:00:00 5.7 6 Sudoeste 8 Sudoeste 0 984.2 0.8 77
2020-01-11 18:00:00 8.1 3 Oeste 10 Norte 0 983.8 0 70
2020-01-11 17:00:00 12.5 5 Norte 11 Norte 0 983.6 -1 50
2020-01-11 16:00:00 12.1 6 Este 11 Este 0 983.4 -2.3 46
2020-01-11 15:00:00 11.9 4 Este 11 Sudeste 0 983.8 -2.4 48
2020-01-11 14:00:00 10.5 6 Norte 12 Norte 0 984.6 -1.3 55
2020-01-11 13:00:00 9.1 4 Nordeste 10 Sudeste 0 985.7 0.5 66
2020-01-11 12:00:00 7.7 4 Sudeste 13 Sudeste 0 986.2 1.6 72
2020-01-11 11:00:00 6.4 9 Sudeste 14 Este 0 985.9 1.2 74
2020-01-11 10:00:00 3.8 0 Calma 7 Sudeste 0 985.2 0.5 83
2020-01-11 09:00:00 1.7 4 Sudeste 10 Este 0 984.6 0.5 88
2020-01-11 08:00:00 2 4 Sudeste 8 Sudoeste 0 984.7 0.5 90
2020-01-11 07:00:00 1.5 3 Sudoeste 7 Nordeste 0 984.7 0.3 90
2020-01-11 06:00:00 2.2 2 Sudoeste 9 Este 0 984.1 -0.4 86
2020-01-11 05:00:00 2.6 5 Sudeste 7 Sur 0 984.2 -0.1 85
2020-01-11 04:00:00 2.9 5 Sudoeste 7 Sur 0 984.4 0 85
2020-01-11 03:00:00 2.7 6 Sudoeste 9 Sudoeste 0 984.5 0 86
2020-01-11 02:00:00 3.1 5 Sudoeste 8 Sudoeste 0 984.3 0.2 86
2020-01-11 01:00:00 3.6 5 Sudoeste 7 Sudoeste 0 984.4 0.7 86
2020-01-11 00:00:00 3.3 3 Oeste 8 Oeste 0 984.5 1.2 84
2020-01-10 23:00:00 4.2 4 Sur 6 Sur 0 984.1 1.3 84
2020-01-10 22:00:00 4.3 3 Sur 9 Sudoeste 0 983.7 1.2 84
2020-01-10 21:00:00 4.9 6 Sudoeste 8 Sudoeste 0 983.3 1.6 82
2020-01-10 20:00:00 5.8 5 Sudoeste 9 Sur 0 982.8 1.4 77
2020-01-10 19:00:00 7.2 4 Sudoeste 9 Nordeste 0 982.5 0.9 71
2020-01-10 18:00:00 10.3 6 Nordeste 20 Norte 0 981.7 0 58
2020-01-10 17:00:00 12 14 Nordeste 23 Nordeste 0 981.4 -0.2 52
2020-01-10 16:00:00 12.1 13 Norte 21 Nordeste 0 981.6 -1.2 53
2020-01-10 15:00:00 12 6 Norte 17 Nordeste 0 981.7 -1.3 58
2020-01-10 14:00:00 11.5 10 Este 24 Nordeste 0 981.6 -0.9 61
2020-01-10 13:00:00 10.6 13 Nordeste 22 Nordeste 0 982.8 0.7 67
2020-01-10 12:00:00 8.8 5 Norte 9 Norte 0 983 1.5 74
2020-01-10 11:00:00 7.3 2 Norte 10 Noroeste 0 982.5 1.8 72
2020-01-10 10:00:00 5.2 5 Oeste 10 Noroeste 0 982.1 2.1 81
2020-01-10 09:00:00 4.3 4 Oeste 14 Oeste 0 981.5 1.7 82
2020-01-10 08:00:00 4.4 5 Oeste 27 Noroeste 0 980.7 0.4 78
2020-01-10 07:00:00 5.2 12 Noroeste 27 Noroeste 0 980 -0.4 71
2020-01-10 06:00:00 5.4 13 Noroeste 28 Noroeste 0 979.8 -0.5 74
2020-01-10 05:00:00 6 10 Noroeste 22 Noroeste 0 980.3 -0.1 75
2020-01-10 04:00:00 6.3 11 Noroeste 22 Noroeste 0 980.4 -0.4 81
2020-01-10 03:00:00 6.7 7 Noroeste 18 Noroeste 0 980.3 -0.6 82
2020-01-10 02:00:00 7.9 8 Oeste 21 Noroeste 0 980.4 -0.4 84
2020-01-10 01:00:00 8.9 8 Noroeste 24 Oeste 0 980.8 0.3 84
2020-01-10 00:00:00 10 10 Oeste 25 Noroeste 0 980.9 0.5 87
2020-01-09 23:00:00 9.9 14 Oeste 31 Oeste 0 980.8 0.6 91
2020-01-09 22:00:00 10.8 21 Sudoeste 31 Oeste 0 980.5 0.3 93
2020-01-09 21:00:00 11.1 21 Sudoeste 30 Sudoeste 0 980.4 0.4 85
2020-01-09 20:00:00 10.9 17 Sudoeste 27 Sudoeste 0 980.2 0.4 80
2020-01-09 19:00:00 12.1 17 Sudoeste 25 Sudoeste 0 980.2 0.6 70
2020-01-09 18:00:00 11.9 5 Oeste 15 Oeste 0 980 -0.4 66
2020-01-09 17:00:00 13.5 11 Oeste 17 Sudoeste 0 979.8 -0.7 65
2020-01-09 16:00:00 13.5 3 Noroeste 18 Noroeste 0 979.6 -2.4 63
2020-01-09 15:00:00 11.7 9 Norte 14 Noroeste 0 980.4 -1.7 81
2020-01-09 14:00:00 10.1 4 Este 12 Noroeste 0 980.5 -1.7 82
2020-01-09 13:00:00 7.6 5 Norte 11 Norte 0 982 0.4 91
2020-01-09 12:00:00 6.1 5 Este 10 Sudeste 0 982.1 0.7 100
2020-01-09 11:00:00 3.2 0 Calma 8 Noroeste 0 982.2 1.4 100
2020-01-09 10:00:00 1.1 3 Sur 6 Sudeste 0 981.6 0.7 100
2020-01-09 09:00:00 0.3 2 Sudeste 9 Norte 0 981.4 0.6 100
2020-01-09 08:00:00 1.1 3 Noroeste 9 Noroeste 0 980.8 -0.2 100
2020-01-09 07:00:00 0.3 3 Noroeste 5 Sudeste 0 980.9 0 100
2020-01-09 06:00:00 0.8 3 Noroeste 7 Noroeste 0 980.8 -0.3 98
2020-01-09 05:00:00 2.7 5 Noroeste 8 Noroeste 0 981 -0.4 98
2020-01-09 04:00:00 4.4 6 Sudeste 10 Sudoeste 0 980.9 -0.6 96
2020-01-09 03:00:00 3.7 8 Sudoeste 11 Sudoeste 0 981.1 -0.9 100
2020-01-09 02:00:00 4.1 6 Sudoeste 8 Sudoeste 0 981.4 -0.7 100
2020-01-09 01:00:00 4.4 4 Sur 8 Sudoeste 0 981.5 -0.6 97
2020-01-09 00:00:00 4.5 5 Sudoeste 7 Sudoeste 0 982 0.3 98
2020-01-08 23:00:00 4.8 5 Sudoeste 8 Sudoeste 0 982.1 0.4 97
2020-01-08 22:00:00 4.9 8 Sudoeste 10 Sudoeste 0 982.1 0.4 97
2020-01-08 21:00:00 4.9 6 Sudoeste 8 Sudoeste 0 981.7 0.2 97
2020-01-08 20:00:00 5.1 4 Sudoeste 7 Sur 0 981.7 0.3 94
2020-01-08 19:00:00 5.5 4 Sudoeste 6 Sudoeste 0 981.7 0.5 92
2020-01-08 18:00:00 7.9 5 Sudoeste 7 Sudoeste 0 981.5 -0.1 87
2020-01-08 17:00:00 10.8 3 Norte 8 Norte 0 981.4 -0.7 77
2020-01-08 16:00:00 10.6 5 Norte 10 Norte 0 981.2 -1.6 79
2020-01-08 15:00:00 9.7 6 Norte 11 Norte 0 981.6 -2.2 80
2020-01-08 14:00:00 9.4 5 Noroeste 10 Norte 0 982.1 -2 82
2020-01-08 13:00:00 7.9 3 Noroeste 7 Norte 0 982.8 -0.8 87
2020-01-08 12:00:00 6.2 4 Norte 9 Este 0 983.8 0.8 91
2020-01-08 11:00:00 4 2 Este 4 Este 0 984.1 1.4 98
2020-01-08 10:00:00 1.2 3 Noroeste 9 Sudoeste 0 983.6 1.2 99
2020-01-08 09:00:00 0.7 3 Sur 4 Sudoeste 0 983 0.5 100
2020-01-08 08:00:00 0.5 4 Oeste 6 Oeste 0 982.7 0 98
2020-01-08 07:00:00 1.6 0 Calma 6 Noroeste 0 982.4 -0.7 99
2020-01-08 06:00:00 1.6 5 Oeste 8 Oeste 0 982.5 -0.8 95
2020-01-08 05:00:00 3.7 6 Sudoeste 8 Sudoeste 0 982.7 -0.7 90
2020-01-08 04:00:00 3.9 3 Sudoeste 5 Sudoeste 0 983.1 -0.5 93
2020-01-08 03:00:00 3.3 0 Calma 4 Sudeste 0 983.3 -0.7 94
2020-01-08 02:00:00 3.9 0 Calma 5 Sudoeste 0 983.4 -0.9 89
2020-01-08 01:00:00 4.9 5 Sudoeste 9 Sudoeste 0 983.6 -0.7 89
2020-01-08 00:00:00 5.6 6 Sudoeste 9 Sudoeste 0 984 -0.2 90
2020-01-07 23:00:00 5.3 5 Sudoeste 9 Sudoeste 0 984.3 0 86
2020-01-07 22:00:00 5.7 8 Sudoeste 10 Sudoeste 0 984.3 0.1 87
2020-01-07 21:00:00 6.1 7 Sudoeste 10 Sudoeste 0 984.2 0.3 88
2020-01-07 20:00:00 6.1 8 Sudoeste 9 Sudoeste 0 984.3 0.4 86
2020-01-07 19:00:00 6.6 6 Sudoeste 8 Sudoeste 0 984.2 0.3 76
2020-01-07 18:00:00 8.2 6 Sudoeste 8 Sudoeste 0 983.9 -0.2 73
2020-01-07 17:00:00 12.5 4 Oeste 8 Noroeste 0 983.9 -0.9 67
2020-01-07 16:00:00 11.9 4 Norte 9 Norte 0 983.9 -1.8 70
2020-01-07 15:00:00 11.2 4 Norte 10 Norte 0 984.1 -2.2 74
2020-01-07 14:00:00 9.9 4 Nordeste 8 Norte 0 984.8 -1.3 78
2020-01-07 13:00:00 8.4 3 Norte 6 Norte 0 985.7 0.1 85
2020-01-07 12:00:00 6.3 4 Norte 6 Norte 0 986.3 1.2 93
2020-01-07 11:00:00 3.9 0 Calma 3 Norte 0 986.1 1.8 98
2020-01-07 10:00:00 2.2 0 Calma 5 Oeste 0 985.6 0.7 100
2020-01-07 09:00:00 1.2 3 Noroeste 5 Norte 0 985.1 0.6 100
2020-01-07 08:00:00 2.4 3 Sudoeste 6 Sur 0 984.3 -0.3 100
2020-01-07 07:00:00 1.7 3 Noroeste 9 Oeste 0 984.9 0.2 100
2020-01-07 06:00:00 2.5 3 Sur 5 Este 0 984.5 0.1 100
2020-01-07 05:00:00 2.1 2 Sudoeste 5 Sudoeste 0 984.6 0.3 99
2020-01-07 04:00:00 2.4 2 Sur 5 Sur 0 984.7 0.6 100
2020-01-07 03:00:00 2.7 3 Sudeste 7 Oeste 0 984.4 0.2 100
2020-01-07 02:00:00 3 3 Sudoeste 11 Oeste 0 984.3 0 96
2020-01-07 01:00:00 4.4 4 Sudoeste 7 Sur 0 984.1 0.3 97
2020-01-07 00:00:00 4.6 5 Sur 6 Sur 0 984.2 0.5 96
2020-01-06 23:00:00 4 5 Sudoeste 10 Sudoeste 0 984.3 0.6 95
2020-01-06 22:00:00 5.5 5 Sur 8 Sudoeste 0 983.8 1 93
2020-01-06 21:00:00 5.6 6 Sudoeste 10 Sudoeste 0 983.7 1.2 94
2020-01-06 20:00:00 6.4 5 Sudoeste 9 Sudoeste 0 983.7 1.6 90
2020-01-06 19:00:00 6.5 6 Sudoeste 9 Sudoeste 0 982.8 1 89
2020-01-06 18:00:00 8.6 5 Sudoeste 8 Sudoeste 0 982.5 1 84
2020-01-06 17:00:00 11.5 4 Noroeste 16 Norte 0 982.1 -0.1 69
2020-01-06 16:00:00 12.6 8 Norte 13 Norte 0 981.8 -1.5 66
2020-01-06 15:00:00 12.8 4 Este 7 Este 0 981.5 -2.8 66
2020-01-06 14:00:00 11 3 Este 7 Nordeste 0 982.2 -1.8 78
2020-01-06 13:00:00 8.3 3 Norte 6 Norte 0 983.3 -0.5 86
2020-01-06 12:00:00 6.5 3 Norte 8 Norte 0 984.3 1.5 90
2020-01-06 11:00:00 5.7 5 Este 7 Este 0 984 1.6 95
2020-01-06 10:00:00 1.8 0 Calma 5 Sudeste 0 983.8 1.9 100